sensor_id;sensor_type;location;lat;lon;timestamp;P1;durP1;ratioP1;P2;durP2;ratioP2
11283;SDS011;5698;47.332;11.180;2023-12-20T00:01:56;0.53;;;0.50;;
11283;SDS011;5698;47.332;11.180;2023-12-20T00:04:23;0.70;;;0.70;;
11283;SDS011;5698;47.332;11.180;2023-12-20T00:06:50;0.50;;;0.50;;
11283;SDS011;5698;47.332;11.180;2023-12-20T00:09:17;0.60;;;0.60;;
11283;SDS011;5698;47.332;11.180;2023-12-20T00:11:44;0.60;;;0.60;;
11283;SDS011;5698;47.332;11.180;2023-12-20T00:14:13;0.60;;;0.60;;
11283;SDS011;5698;47.332;11.180;2023-12-20T00:16:40;0.80;;;0.63;;
11283;SDS011;5698;47.332;11.180;2023-12-20T00:19:07;1.27;;;0.90;;
11283;SDS011;5698;47.332;11.180;2023-12-20T00:21:34;0.70;;;0.70;;
11283;SDS011;5698;47.332;11.180;2023-12-20T00:24:00;0.80;;;0.60;;
11283;SDS011;5698;47.332;11.180;2023-12-20T00:26:28;0.83;;;0.50;;
11283;SDS011;5698;47.332;11.180;2023-12-20T00:28:55;0.60;;;0.60;;
11283;SDS011;5698;47.332;11.180;2023-12-20T00:31:23;0.67;;;0.67;;
11283;SDS011;5698;47.332;11.180;2023-12-20T00:33:50;0.60;;;0.60;;
11283;SDS011;5698;47.332;11.180;2023-12-20T00:36:17;0.73;;;0.73;;
11283;SDS011;5698;47.332;11.180;2023-12-20T00:38:44;0.70;;;0.60;;
11283;SDS011;5698;47.332;11.180;2023-12-20T00:41:11;0.57;;;0.57;;
11283;SDS011;5698;47.332;11.180;2023-12-20T00:43:38;0.60;;;0.60;;
11283;SDS011;5698;47.332;11.180;2023-12-20T00:46:05;0.50;;;0.50;;
11283;SDS011;5698;47.332;11.180;2023-12-20T00:48:33;0.63;;;0.63;;
11283;SDS011;5698;47.332;11.180;2023-12-20T00:51:00;0.50;;;0.50;;
11283;SDS011;5698;47.332;11.180;2023-12-20T00:53:27;0.60;;;0.60;;
11283;SDS011;5698;47.332;11.180;2023-12-20T00:55:54;0.63;;;0.60;;
11283;SDS011;5698;47.332;11.180;2023-12-20T00:58:23;1.17;;;0.90;;
11283;SDS011;5698;47.332;11.180;2023-12-20T01:00:51;1.23;;;0.63;;
11283;SDS011;5698;47.332;11.180;2023-12-20T01:03:18;0.60;;;0.60;;
11283;SDS011;5698;47.332;11.180;2023-12-20T01:05:47;0.70;;;0.70;;
11283;SDS011;5698;47.332;11.180;2023-12-20T01:08:14;0.60;;;0.60;;
11283;SDS011;5698;47.332;11.180;2023-12-20T01:10:41;0.93;;;0.60;;
11283;SDS011;5698;47.332;11.180;2023-12-20T01:13:08;0.97;;;0.90;;
11283;SDS011;5698;47.332;11.180;2023-12-20T01:15:35;0.60;;;0.60;;
11283;SDS011;5698;47.332;11.180;2023-12-20T01:18:02;0.70;;;0.70;;
11283;SDS011;5698;47.332;11.180;2023-12-20T01:20:29;0.60;;;0.60;;
11283;SDS011;5698;47.332;11.180;2023-12-20T01:22:57;1.07;;;0.70;;
11283;SDS011;5698;47.332;11.180;2023-12-20T01:25:24;0.50;;;0.50;;
11283;SDS011;5698;47.332;11.180;2023-12-20T01:27:51;0.73;;;0.60;;
11283;SDS011;5698;47.332;11.180;2023-12-20T01:30:18;0.60;;;0.60;;
11283;SDS011;5698;47.332;11.180;2023-12-20T01:32:45;0.60;;;0.60;;
11283;SDS011;5698;47.332;11.180;2023-12-20T01:35:12;0.60;;;0.60;;
11283;SDS011;5698;47.332;11.180;2023-12-20T01:37:39;0.70;;;0.70;;
11283;SDS011;5698;47.332;11.180;2023-12-20T01:40:08;0.80;;;0.70;;
11283;SDS011;5698;47.332;11.180;2023-12-20T01:42:36;0.70;;;0.70;;
11283;SDS011;5698;47.332;11.180;2023-12-20T01:45:03;0.70;;;0.70;;
11283;SDS011;5698;47.332;11.180;2023-12-20T01:47:31;1.03;;;0.63;;
11283;SDS011;5698;47.332;11.180;2023-12-20T01:49:58;0.50;;;0.50;;
11283;SDS011;5698;47.332;11.180;2023-12-20T01:52:25;0.50;;;0.50;;
11283;SDS011;5698;47.332;11.180;2023-12-20T01:54:53;0.80;;;0.80;;
11283;SDS011;5698;47.332;11.180;2023-12-20T01:57:27;0.67;;;0.67;;
11283;SDS011;5698;47.332;11.180;2023-12-20T01:59:55;0.60;;;0.60;;
11283;SDS011;5698;47.332;11.180;2023-12-20T02:02:22;0.77;;;0.77;;
11283;SDS011;5698;47.332;11.180;2023-12-20T02:04:49;0.70;;;0.70;;
11283;SDS011;5698;47.332;11.180;2023-12-20T02:07:17;0.70;;;0.70;;
11283;SDS011;5698;47.332;11.180;2023-12-20T02:09:45;1.00;;;0.60;;
11283;SDS011;5698;47.332;11.180;2023-12-20T02:12:12;0.90;;;0.80;;
11283;SDS011;5698;47.332;11.180;2023-12-20T02:14:41;0.60;;;0.60;;
11283;SDS011;5698;47.332;11.180;2023-12-20T02:17:08;0.70;;;0.60;;
11283;SDS011;5698;47.332;11.180;2023-12-20T02:19:34;0.50;;;0.50;;
11283;SDS011;5698;47.332;11.180;2023-12-20T02:22:07;0.60;;;0.60;;
11283;SDS011;5698;47.332;11.180;2023-12-20T02:24:34;0.50;;;0.50;;
11283;SDS011;5698;47.332;11.180;2023-12-20T02:27:01;0.60;;;0.60;;
11283;SDS011;5698;47.332;11.180;2023-12-20T02:29:29;0.90;;;0.73;;
11283;SDS011;5698;47.332;11.180;2023-12-20T02:31:57;0.93;;;0.70;;
11283;SDS011;5698;47.332;11.180;2023-12-20T02:34:24;0.70;;;0.63;;
11283;SDS011;5698;47.332;11.180;2023-12-20T02:36:51;0.80;;;0.70;;
11283;SDS011;5698;47.332;11.180;2023-12-20T02:39:19;0.70;;;0.70;;
11283;SDS011;5698;47.332;11.180;2023-12-20T02:41:47;1.27;;;0.87;;
11283;SDS011;5698;47.332;11.180;2023-12-20T02:44:15;1.00;;;0.70;;
11283;SDS011;5698;47.332;11.180;2023-12-20T02:46:41;0.80;;;0.73;;
11283;SDS011;5698;47.332;11.180;2023-12-20T02:49:08;0.90;;;0.80;;
11283;SDS011;5698;47.332;11.180;2023-12-20T02:51:35;0.67;;;0.50;;
11283;SDS011;5698;47.332;11.180;2023-12-20T02:54:03;0.90;;;0.87;;
11283;SDS011;5698;47.332;11.180;2023-12-20T02:56:32;0.60;;;0.60;;
11283;SDS011;5698;47.332;11.180;2023-12-20T02:58:59;0.60;;;0.60;;
11283;SDS011;5698;47.332;11.180;2023-12-20T03:01:26;0.50;;;0.50;;
11283;SDS011;5698;47.332;11.180;2023-12-20T03:03:53;0.60;;;0.60;;
11283;SDS011;5698;47.332;11.180;2023-12-20T03:06:20;0.70;;;0.70;;
11283;SDS011;5698;47.332;11.180;2023-12-20T03:08:47;0.77;;;0.70;;
11283;SDS011;5698;47.332;11.180;2023-12-20T03:11:14;0.50;;;0.50;;
11283;SDS011;5698;47.332;11.180;2023-12-20T03:13:42;1.33;;;0.70;;
11283;SDS011;5698;47.332;11.180;2023-12-20T03:16:09;0.70;;;0.70;;
11283;SDS011;5698;47.332;11.180;2023-12-20T03:18:37;0.50;;;0.50;;
11283;SDS011;5698;47.332;11.180;2023-12-20T03:21:04;0.80;;;0.73;;
11283;SDS011;5698;47.332;11.180;2023-12-20T03:23:31;0.80;;;0.60;;
11283;SDS011;5698;47.332;11.180;2023-12-20T03:25:58;0.70;;;0.70;;
11283;SDS011;5698;47.332;11.180;2023-12-20T03:28:26;0.90;;;0.60;;
11283;SDS011;5698;47.332;11.180;2023-12-20T03:30:55;0.80;;;0.70;;
11283;SDS011;5698;47.332;11.180;2023-12-20T03:33:22;0.80;;;0.77;;
11283;SDS011;5698;47.332;11.180;2023-12-20T03:35:49;0.67;;;0.67;;
11283;SDS011;5698;47.332;11.180;2023-12-20T03:38:16;0.53;;;0.53;;
11283;SDS011;5698;47.332;11.180;2023-12-20T03:40:43;0.60;;;0.60;;
11283;SDS011;5698;47.332;11.180;2023-12-20T03:43:10;0.57;;;0.57;;
11283;SDS011;5698;47.332;11.180;2023-12-20T03:45:37;0.70;;;0.70;;
11283;SDS011;5698;47.332;11.180;2023-12-20T03:48:05;0.60;;;0.60;;
11283;SDS011;5698;47.332;11.180;2023-12-20T03:50:33;0.50;;;0.50;;
11283;SDS011;5698;47.332;11.180;2023-12-20T03:53:00;0.67;;;0.60;;
11283;SDS011;5698;47.332;11.180;2023-12-20T03:55:29;0.80;;;0.80;;
11283;SDS011;5698;47.332;11.180;2023-12-20T03:57:56;0.60;;;0.60;;
11283;SDS011;5698;47.332;11.180;2023-12-20T04:00:23;0.50;;;0.50;;
11283;SDS011;5698;47.332;11.180;2023-12-20T04:02:49;0.70;;;0.67;;
11283;SDS011;5698;47.332;11.180;2023-12-20T04:05:18;0.70;;;0.70;;
11283;SDS011;5698;47.332;11.180;2023-12-20T04:07:45;0.70;;;0.70;;
11283;SDS011;5698;47.332;11.180;2023-12-20T04:10:12;0.67;;;0.67;;
11283;SDS011;5698;47.332;11.180;2023-12-20T04:12:39;0.80;;;0.80;;
11283;SDS011;5698;47.332;11.180;2023-12-20T04:15:06;1.37;;;0.90;;
11283;SDS011;5698;47.332;11.180;2023-12-20T04:17:34;0.70;;;0.70;;
11283;SDS011;5698;47.332;11.180;2023-12-20T04:20:01;0.77;;;0.70;;
11283;SDS011;5698;47.332;11.180;2023-12-20T04:22:30;0.90;;;0.90;;
11283;SDS011;5698;47.332;11.180;2023-12-20T04:24:57;2.63;;;0.80;;
11283;SDS011;5698;47.332;11.180;2023-12-20T04:27:24;1.40;;;0.90;;
11283;SDS011;5698;47.332;11.180;2023-12-20T04:29:51;1.17;;;0.67;;
11283;SDS011;5698;47.332;11.180;2023-12-20T04:32:18;0.80;;;0.80;;
11283;SDS011;5698;47.332;11.180;2023-12-20T04:34:45;0.67;;;0.67;;
11283;SDS011;5698;47.332;11.180;2023-12-20T04:37:12;1.00;;;0.90;;
11283;SDS011;5698;47.332;11.180;2023-12-20T04:39:40;1.07;;;0.83;;
11283;SDS011;5698;47.332;11.180;2023-12-20T04:42:07;1.27;;;1.17;;
11283;SDS011;5698;47.332;11.180;2023-12-20T04:44:34;0.97;;;0.97;;
11283;SDS011;5698;47.332;11.180;2023-12-20T04:47:01;1.10;;;1.00;;
11283;SDS011;5698;47.332;11.180;2023-12-20T04:49:28;1.10;;;1.00;;
11283;SDS011;5698;47.332;11.180;2023-12-20T04:51:55;1.50;;;1.10;;
11283;SDS011;5698;47.332;11.180;2023-12-20T04:54:23;1.27;;;1.10;;
11283;SDS011;5698;47.332;11.180;2023-12-20T04:56:52;0.87;;;0.83;;
11283;SDS011;5698;47.332;11.180;2023-12-20T04:59:19;1.70;;;1.30;;
11283;SDS011;5698;47.332;11.180;2023-12-20T05:01:46;1.07;;;0.97;;
11283;SDS011;5698;47.332;11.180;2023-12-20T05:04:13;3.10;;;0.90;;
11283;SDS011;5698;47.332;11.180;2023-12-20T05:06:40;1.30;;;1.20;;
11283;SDS011;5698;47.332;11.180;2023-12-20T05:09:07;1.50;;;1.40;;
11283;SDS011;5698;47.332;11.180;2023-12-20T05:11:35;1.53;;;1.40;;
11283;SDS011;5698;47.332;11.180;2023-12-20T05:14:03;1.50;;;1.40;;
11283;SDS011;5698;47.332;11.180;2023-12-20T05:16:30;1.20;;;1.10;;
11283;SDS011;5698;47.332;11.180;2023-12-20T05:18:57;1.03;;;0.87;;
11283;SDS011;5698;47.332;11.180;2023-12-20T05:21:26;1.20;;;1.10;;
11283;SDS011;5698;47.332;11.180;2023-12-20T05:23:52;1.30;;;1.20;;
11283;SDS011;5698;47.332;11.180;2023-12-20T05:26:19;1.17;;;1.07;;
11283;SDS011;5698;47.332;11.180;2023-12-20T05:28:46;1.10;;;1.00;;
11283;SDS011;5698;47.332;11.180;2023-12-20T05:31:15;1.00;;;1.00;;
11283;SDS011;5698;47.332;11.180;2023-12-20T05:33:42;0.80;;;0.80;;
11283;SDS011;5698;47.332;11.180;2023-12-20T05:36:09;1.17;;;1.00;;
11283;SDS011;5698;47.332;11.180;2023-12-20T05:38:38;0.83;;;0.80;;
11283;SDS011;5698;47.332;11.180;2023-12-20T05:41:05;1.17;;;1.00;;
11283;SDS011;5698;47.332;11.180;2023-12-20T05:43:32;1.27;;;1.17;;
11283;SDS011;5698;47.332;11.180;2023-12-20T05:45:59;0.93;;;0.90;;
11283;SDS011;5698;47.332;11.180;2023-12-20T05:48:27;1.20;;;1.10;;
11283;SDS011;5698;47.332;11.180;2023-12-20T05:50:54;1.10;;;1.00;;
11283;SDS011;5698;47.332;11.180;2023-12-20T05:53:21;1.33;;;0.90;;
11283;SDS011;5698;47.332;11.180;2023-12-20T05:55:48;1.07;;;0.90;;
11283;SDS011;5698;47.332;11.180;2023-12-20T05:58:15;1.23;;;0.87;;
11283;SDS011;5698;47.332;11.180;2023-12-20T06:00:42;1.00;;;0.87;;
11283;SDS011;5698;47.332;11.180;2023-12-20T06:03:09;1.10;;;1.00;;
11283;SDS011;5698;47.332;11.180;2023-12-20T06:05:38;0.93;;;0.83;;
11283;SDS011;5698;47.332;11.180;2023-12-20T06:08:05;0.60;;;0.60;;
11283;SDS011;5698;47.332;11.180;2023-12-20T06:10:32;0.90;;;0.87;;
11283;SDS011;5698;47.332;11.180;2023-12-20T06:12:59;1.47;;;1.17;;
11283;SDS011;5698;47.332;11.180;2023-12-20T06:15:26;1.00;;;0.90;;
11283;SDS011;5698;47.332;11.180;2023-12-20T06:17:53;1.07;;;0.97;;
11283;SDS011;5698;47.332;11.180;2023-12-20T06:20:20;0.80;;;0.80;;
11283;SDS011;5698;47.332;11.180;2023-12-20T06:22:49;0.90;;;0.90;;
11283;SDS011;5698;47.332;11.180;2023-12-20T06:25:16;0.93;;;0.80;;
11283;SDS011;5698;47.332;11.180;2023-12-20T06:27:43;0.93;;;0.87;;
11283;SDS011;5698;47.332;11.180;2023-12-20T06:30:10;0.80;;;0.80;;
11283;SDS011;5698;47.332;11.180;2023-12-20T06:32:37;0.87;;;0.80;;
11283;SDS011;5698;47.332;11.180;2023-12-20T06:35:05;0.90;;;0.80;;
11283;SDS011;5698;47.332;11.180;2023-12-20T06:37:32;0.93;;;0.90;;
11283;SDS011;5698;47.332;11.180;2023-12-20T06:40:01;1.20;;;1.00;;
11283;SDS011;5698;47.332;11.180;2023-12-20T06:42:28;1.97;;;1.23;;
11283;SDS011;5698;47.332;11.180;2023-12-20T06:44:55;1.40;;;1.03;;
11283;SDS011;5698;47.332;11.180;2023-12-20T06:47:22;0.70;;;0.70;;
11283;SDS011;5698;47.332;11.180;2023-12-20T06:49:49;2.00;;;1.00;;
11283;SDS011;5698;47.332;11.180;2023-12-20T06:52:16;0.83;;;0.83;;
11283;SDS011;5698;47.332;11.180;2023-12-20T06:54:43;0.80;;;0.80;;
11283;SDS011;5698;47.332;11.180;2023-12-20T06:57:11;1.03;;;0.77;;
11283;SDS011;5698;47.332;11.180;2023-12-20T06:59:38;1.00;;;1.00;;
11283;SDS011;5698;47.332;11.180;2023-12-20T07:02:05;2.13;;;1.00;;
11283;SDS011;5698;47.332;11.180;2023-12-20T07:04:32;1.90;;;1.07;;
11283;SDS011;5698;47.332;11.180;2023-12-20T07:06:59;1.00;;;1.00;;
11283;SDS011;5698;47.332;11.180;2023-12-20T07:09:26;1.67;;;1.07;;
11283;SDS011;5698;47.332;11.180;2023-12-20T07:11:53;2.07;;;0.87;;
11283;SDS011;5698;47.332;11.180;2023-12-20T07:14:22;1.07;;;0.90;;
11283;SDS011;5698;47.332;11.180;2023-12-20T07:16:49;1.87;;;1.43;;
11283;SDS011;5698;47.332;11.180;2023-12-20T07:19:16;1.50;;;1.30;;
11283;SDS011;5698;47.332;11.180;2023-12-20T07:21:43;1.23;;;1.13;;
11283;SDS011;5698;47.332;11.180;2023-12-20T07:24:09;1.43;;;1.03;;
11283;SDS011;5698;47.332;11.180;2023-12-20T07:26:36;0.83;;;0.83;;
11283;SDS011;5698;47.332;11.180;2023-12-20T07:29:04;1.07;;;0.83;;
11283;SDS011;5698;47.332;11.180;2023-12-20T07:31:33;0.70;;;0.70;;
11283;SDS011;5698;47.332;11.180;2023-12-20T07:34:00;0.67;;;0.67;;
11283;SDS011;5698;47.332;11.180;2023-12-20T07:36:27;1.27;;;0.90;;
11283;SDS011;5698;47.332;11.180;2023-12-20T07:38:54;1.10;;;1.00;;
11283;SDS011;5698;47.332;11.180;2023-12-20T07:41:21;0.80;;;0.80;;
11283;SDS011;5698;47.332;11.180;2023-12-20T07:43:48;1.10;;;1.00;;
11283;SDS011;5698;47.332;11.180;2023-12-20T07:46:15;1.00;;;0.90;;
11283;SDS011;5698;47.332;11.180;2023-12-20T07:48:44;0.90;;;0.90;;
11283;SDS011;5698;47.332;11.180;2023-12-20T07:51:11;0.80;;;0.80;;
11283;SDS011;5698;47.332;11.180;2023-12-20T07:53:38;1.33;;;1.00;;
11283;SDS011;5698;47.332;11.180;2023-12-20T07:56:13;1.50;;;0.90;;
11283;SDS011;5698;47.332;11.180;2023-12-20T07:58:40;0.77;;;0.77;;
11283;SDS011;5698;47.332;11.180;2023-12-20T08:01:07;1.03;;;0.90;;
11283;SDS011;5698;47.332;11.180;2023-12-20T08:03:35;1.30;;;1.20;;
11283;SDS011;5698;47.332;11.180;2023-12-20T08:06:03;1.70;;;1.20;;
11283;SDS011;5698;47.332;11.180;2023-12-20T08:08:30;1.47;;;1.17;;
11283;SDS011;5698;47.332;11.180;2023-12-20T08:10:57;1.33;;;1.23;;
11283;SDS011;5698;47.332;11.180;2023-12-20T08:13:25;1.00;;;0.90;;
11283;SDS011;5698;47.332;11.180;2023-12-20T08:15:52;1.17;;;1.07;;
11283;SDS011;5698;47.332;11.180;2023-12-20T08:18:21;1.33;;;1.10;;
11283;SDS011;5698;47.332;11.180;2023-12-20T08:20:48;1.27;;;1.10;;
11283;SDS011;5698;47.332;11.180;2023-12-20T08:23:19;1.80;;;1.27;;
11283;SDS011;5698;47.332;11.180;2023-12-20T08:25:47;1.13;;;1.03;;
11283;SDS011;5698;47.332;11.180;2023-12-20T08:28:14;1.53;;;1.30;;
11283;SDS011;5698;47.332;11.180;2023-12-20T08:30:41;2.43;;;1.30;;
11283;SDS011;5698;47.332;11.180;2023-12-20T08:33:08;1.00;;;0.90;;
11283;SDS011;5698;47.332;11.180;2023-12-20T08:35:39;1.10;;;1.00;;
11283;SDS011;5698;47.332;11.180;2023-12-20T08:38:06;1.10;;;1.00;;
11283;SDS011;5698;47.332;11.180;2023-12-20T08:40:34;1.20;;;0.80;;
11283;SDS011;5698;47.332;11.180;2023-12-20T08:43:01;1.10;;;1.00;;
11283;SDS011;5698;47.332;11.180;2023-12-20T08:45:29;1.13;;;1.03;;
11283;SDS011;5698;47.332;11.180;2023-12-20T08:47:55;1.07;;;0.97;;
11283;SDS011;5698;47.332;11.180;2023-12-20T08:50:23;1.53;;;1.20;;
11283;SDS011;5698;47.332;11.180;2023-12-20T08:52:50;1.00;;;0.77;;
11283;SDS011;5698;47.332;11.180;2023-12-20T08:55:17;0.97;;;0.90;;
11283;SDS011;5698;47.332;11.180;2023-12-20T08:57:46;1.53;;;0.90;;
11283;SDS011;5698;47.332;11.180;2023-12-20T09:00:14;1.33;;;0.80;;
11283;SDS011;5698;47.332;11.180;2023-12-20T09:02:41;1.00;;;0.80;;
11283;SDS011;5698;47.332;11.180;2023-12-20T09:05:08;0.73;;;0.70;;
11283;SDS011;5698;47.332;11.180;2023-12-20T09:07:35;0.70;;;0.70;;
11283;SDS011;5698;47.332;11.180;2023-12-20T09:10:02;0.77;;;0.77;;
11283;SDS011;5698;47.332;11.180;2023-12-20T09:12:30;0.70;;;0.70;;
11283;SDS011;5698;47.332;11.180;2023-12-20T09:14:58;0.87;;;0.70;;
11283;SDS011;5698;47.332;11.180;2023-12-20T09:17:27;1.20;;;0.77;;
11283;SDS011;5698;47.332;11.180;2023-12-20T09:19:54;0.70;;;0.70;;
11283;SDS011;5698;47.332;11.180;2023-12-20T09:22:21;0.60;;;0.60;;
11283;SDS011;5698;47.332;11.180;2023-12-20T09:24:48;0.70;;;0.70;;
11283;SDS011;5698;47.332;11.180;2023-12-20T09:27:15;0.60;;;0.60;;
11283;SDS011;5698;47.332;11.180;2023-12-20T09:29:42;2.73;;;1.63;;
11283;SDS011;5698;47.332;11.180;2023-12-20T09:32:10;1.93;;;1.30;;
11283;SDS011;5698;47.332;11.180;2023-12-20T09:34:37;0.80;;;0.80;;
11283;SDS011;5698;47.332;11.180;2023-12-20T09:37:04;0.97;;;0.80;;
11283;SDS011;5698;47.332;11.180;2023-12-20T09:39:32;0.70;;;0.70;;
11283;SDS011;5698;47.332;11.180;2023-12-20T09:42:00;0.50;;;0.50;;
11283;SDS011;5698;47.332;11.180;2023-12-20T09:44:27;0.60;;;0.60;;
11283;SDS011;5698;47.332;11.180;2023-12-20T09:46:55;0.50;;;0.50;;
11283;SDS011;5698;47.332;11.180;2023-12-20T09:49:24;0.50;;;0.50;;
11283;SDS011;5698;47.332;11.180;2023-12-20T09:51:53;0.83;;;0.60;;
11283;SDS011;5698;47.332;11.180;2023-12-20T09:54:21;0.60;;;0.60;;
11283;SDS011;5698;47.332;11.180;2023-12-20T09:56:49;0.60;;;0.60;;
11283;SDS011;5698;47.332;11.180;2023-12-20T09:59:16;0.60;;;0.60;;
11283;SDS011;5698;47.332;11.180;2023-12-20T10:01:43;1.10;;;0.63;;
11283;SDS011;5698;47.332;11.180;2023-12-20T10:04:10;0.60;;;0.60;;
11283;SDS011;5698;47.332;11.180;2023-12-20T10:06:40;0.50;;;0.50;;
11283;SDS011;5698;47.332;11.180;2023-12-20T10:09:08;0.87;;;0.53;;
11283;SDS011;5698;47.332;11.180;2023-12-20T10:11:35;0.40;;;0.40;;
11283;SDS011;5698;47.332;11.180;2023-12-20T10:14:03;0.53;;;0.53;;
11283;SDS011;5698;47.332;11.180;2023-12-20T10:16:31;0.50;;;0.50;;
11283;SDS011;5698;47.332;11.180;2023-12-20T10:18:59;0.53;;;0.53;;
11283;SDS011;5698;47.332;11.180;2023-12-20T10:21:27;0.40;;;0.40;;
11283;SDS011;5698;47.332;11.180;2023-12-20T10:23:56;0.50;;;0.50;;
11283;SDS011;5698;47.332;11.180;2023-12-20T10:26:24;0.47;;;0.47;;
11283;SDS011;5698;47.332;11.180;2023-12-20T10:28:53;0.60;;;0.50;;
11283;SDS011;5698;47.332;11.180;2023-12-20T10:31:26;0.50;;;0.50;;
11283;SDS011;5698;47.332;11.180;2023-12-20T10:33:55;0.50;;;0.50;;
11283;SDS011;5698;47.332;11.180;2023-12-20T10:36:23;1.67;;;1.40;;
11283;SDS011;5698;47.332;11.180;2023-12-20T10:38:52;0.70;;;0.70;;
11283;SDS011;5698;47.332;11.180;2023-12-20T10:41:23;3.13;;;2.40;;
11283;SDS011;5698;47.332;11.180;2023-12-20T10:43:52;2.00;;;1.53;;
11283;SDS011;5698;47.332;11.180;2023-12-20T10:46:22;1.07;;;0.90;;
11283;SDS011;5698;47.332;11.180;2023-12-20T10:48:51;0.67;;;0.67;;
11283;SDS011;5698;47.332;11.180;2023-12-20T10:51:20;0.70;;;0.70;;
11283;SDS011;5698;47.332;11.180;2023-12-20T10:53:48;0.57;;;0.40;;
11283;SDS011;5698;47.332;11.180;2023-12-20T10:56:15;0.50;;;0.50;;
11283;SDS011;5698;47.332;11.180;2023-12-20T10:58:46;0.40;;;0.40;;
11283;SDS011;5698;47.332;11.180;2023-12-20T11:01:14;0.70;;;0.50;;
11283;SDS011;5698;47.332;11.180;2023-12-20T11:03:43;0.90;;;0.50;;
11283;SDS011;5698;47.332;11.180;2023-12-20T11:06:18;0.50;;;0.50;;
11283;SDS011;5698;47.332;11.180;2023-12-20T11:08:56;0.50;;;0.50;;
11283;SDS011;5698;47.332;11.180;2023-12-20T11:11:35;0.50;;;0.50;;
11283;SDS011;5698;47.332;11.180;2023-12-20T11:14:11;0.50;;;0.50;;
11283;SDS011;5698;47.332;11.180;2023-12-20T11:16:43;0.50;;;0.50;;
11283;SDS011;5698;47.332;11.180;2023-12-20T11:19:10;0.50;;;0.50;;
11283;SDS011;5698;47.332;11.180;2023-12-20T11:21:39;0.70;;;0.57;;
11283;SDS011;5698;47.332;11.180;2023-12-20T11:24:07;0.50;;;0.50;;
11283;SDS011;5698;47.332;11.180;2023-12-20T11:26:34;0.57;;;0.50;;
11283;SDS011;5698;47.332;11.180;2023-12-20T11:31:58;0.40;;;0.40;;
11283;SDS011;5698;47.332;11.180;2023-12-20T11:34:26;0.40;;;0.40;;
11283;SDS011;5698;47.332;11.180;2023-12-20T11:36:57;0.37;;;0.37;;
11283;SDS011;5698;47.332;11.180;2023-12-20T11:39:26;0.50;;;0.50;;
11283;SDS011;5698;47.332;11.180;2023-12-20T11:41:55;0.43;;;0.43;;
11283;SDS011;5698;47.332;11.180;2023-12-20T11:44:25;0.40;;;0.40;;
11283;SDS011;5698;47.332;11.180;2023-12-20T11:46:54;0.50;;;0.50;;
11283;SDS011;5698;47.332;11.180;2023-12-20T11:49:24;0.30;;;0.30;;
11283;SDS011;5698;47.332;11.180;2023-12-20T11:51:51;0.40;;;0.40;;
11283;SDS011;5698;47.332;11.180;2023-12-20T11:54:18;0.50;;;0.50;;
11283;SDS011;5698;47.332;11.180;2023-12-20T11:56:45;0.50;;;0.50;;
11283;SDS011;5698;47.332;11.180;2023-12-20T11:59:13;0.40;;;0.40;;
11283;SDS011;5698;47.332;11.180;2023-12-20T12:01:47;0.40;;;0.40;;
11283;SDS011;5698;47.332;11.180;2023-12-20T12:04:16;0.37;;;0.37;;
11283;SDS011;5698;47.332;11.180;2023-12-20T12:06:43;0.30;;;0.30;;
11283;SDS011;5698;47.332;11.180;2023-12-20T12:09:11;0.40;;;0.40;;
11283;SDS011;5698;47.332;11.180;2023-12-20T12:11:39;0.40;;;0.40;;
11283;SDS011;5698;47.332;11.180;2023-12-20T12:14:06;0.40;;;0.40;;
11283;SDS011;5698;47.332;11.180;2023-12-20T12:16:34;0.40;;;0.40;;
11283;SDS011;5698;47.332;11.180;2023-12-20T12:19:01;0.30;;;0.30;;
11283;SDS011;5698;47.332;11.180;2023-12-20T12:21:30;0.50;;;0.50;;
11283;SDS011;5698;47.332;11.180;2023-12-20T12:24:05;0.40;;;0.40;;
11283;SDS011;5698;47.332;11.180;2023-12-20T12:26:33;0.43;;;0.43;;
11283;SDS011;5698;47.332;11.180;2023-12-20T12:29:00;0.40;;;0.30;;
11283;SDS011;5698;47.332;11.180;2023-12-20T12:31:27;0.40;;;0.40;;
11283;SDS011;5698;47.332;11.180;2023-12-20T12:33:55;0.60;;;0.60;;
11283;SDS011;5698;47.332;11.180;2023-12-20T12:36:22;0.40;;;0.40;;
11283;SDS011;5698;47.332;11.180;2023-12-20T12:38:50;0.50;;;0.50;;
11283;SDS011;5698;47.332;11.180;2023-12-20T12:41:16;0.40;;;0.40;;
11283;SDS011;5698;47.332;11.180;2023-12-20T12:43:44;0.57;;;0.57;;
11283;SDS011;5698;47.332;11.180;2023-12-20T12:46:11;0.80;;;0.80;;
11283;SDS011;5698;47.332;11.180;2023-12-20T12:48:38;0.60;;;0.60;;
11283;SDS011;5698;47.332;11.180;2023-12-20T12:51:05;0.47;;;0.47;;
11283;SDS011;5698;47.332;11.180;2023-12-20T12:53:37;0.40;;;0.40;;
11283;SDS011;5698;47.332;11.180;2023-12-20T12:56:06;0.40;;;0.40;;
11283;SDS011;5698;47.332;11.180;2023-12-20T12:58:33;0.40;;;0.40;;
11283;SDS011;5698;47.332;11.180;2023-12-20T13:01:00;0.30;;;0.30;;
11283;SDS011;5698;47.332;11.180;2023-12-20T13:03:28;0.30;;;0.30;;
11283;SDS011;5698;47.332;11.180;2023-12-20T13:05:55;0.40;;;0.40;;
11283;SDS011;5698;47.332;11.180;2023-12-20T13:08:22;0.30;;;0.30;;
11283;SDS011;5698;47.332;11.180;2023-12-20T13:10:49;0.30;;;0.30;;
11283;SDS011;5698;47.332;11.180;2023-12-20T13:13:18;0.50;;;0.50;;
11283;SDS011;5698;47.332;11.180;2023-12-20T13:15:45;0.40;;;0.40;;
11283;SDS011;5698;47.332;11.180;2023-12-20T13:18:16;0.40;;;0.40;;
11283;SDS011;5698;47.332;11.180;2023-12-20T13:20:43;0.30;;;0.30;;
11283;SDS011;5698;47.332;11.180;2023-12-20T13:23:13;0.60;;;0.60;;
11283;SDS011;5698;47.332;11.180;2023-12-20T13:25:40;0.53;;;0.40;;
11283;SDS011;5698;47.332;11.180;2023-12-20T13:28:07;0.40;;;0.40;;
11283;SDS011;5698;47.332;11.180;2023-12-20T13:30:36;0.40;;;0.40;;
11283;SDS011;5698;47.332;11.180;2023-12-20T13:33:04;0.50;;;0.50;;
11283;SDS011;5698;47.332;11.180;2023-12-20T13:35:31;0.53;;;0.53;;
11283;SDS011;5698;47.332;11.180;2023-12-20T13:37:58;0.40;;;0.40;;
11283;SDS011;5698;47.332;11.180;2023-12-20T13:40:26;0.50;;;0.50;;
11283;SDS011;5698;47.332;11.180;2023-12-20T13:42:54;0.40;;;0.40;;
11283;SDS011;5698;47.332;11.180;2023-12-20T13:45:22;1.03;;;0.50;;
11283;SDS011;5698;47.332;11.180;2023-12-20T13:47:51;0.40;;;0.40;;
11283;SDS011;5698;47.332;11.180;2023-12-20T13:50:19;0.43;;;0.40;;
11283;SDS011;5698;47.332;11.180;2023-12-20T13:52:47;0.50;;;0.50;;
11283;SDS011;5698;47.332;11.180;2023-12-20T13:55:14;0.50;;;0.50;;
11283;SDS011;5698;47.332;11.180;2023-12-20T13:57:41;0.50;;;0.50;;
11283;SDS011;5698;47.332;11.180;2023-12-20T14:00:09;1.50;;;0.60;;
11283;SDS011;5698;47.332;11.180;2023-12-20T14:02:39;1.50;;;0.70;;
11283;SDS011;5698;47.332;11.180;2023-12-20T14:05:09;0.80;;;0.60;;
11283;SDS011;5698;47.332;11.180;2023-12-20T14:07:36;0.87;;;0.60;;
11283;SDS011;5698;47.332;11.180;2023-12-20T14:10:03;1.23;;;0.60;;
11283;SDS011;5698;47.332;11.180;2023-12-20T14:12:31;0.60;;;0.60;;
11283;SDS011;5698;47.332;11.180;2023-12-20T14:15:01;0.90;;;0.50;;
11283;SDS011;5698;47.332;11.180;2023-12-20T14:17:29;1.17;;;0.60;;
11283;SDS011;5698;47.332;11.180;2023-12-20T14:19:56;0.57;;;0.50;;
11283;SDS011;5698;47.332;11.180;2023-12-20T14:22:25;0.50;;;0.50;;
11283;SDS011;5698;47.332;11.180;2023-12-20T14:24:54;0.40;;;0.40;;
11283;SDS011;5698;47.332;11.180;2023-12-20T14:27:22;0.43;;;0.43;;
11283;SDS011;5698;47.332;11.180;2023-12-20T14:29:49;0.40;;;0.40;;
11283;SDS011;5698;47.332;11.180;2023-12-20T14:32:16;0.60;;;0.60;;
11283;SDS011;5698;47.332;11.180;2023-12-20T14:34:43;0.60;;;0.40;;
11283;SDS011;5698;47.332;11.180;2023-12-20T14:37:10;0.37;;;0.37;;
11283;SDS011;5698;47.332;11.180;2023-12-20T14:39:38;0.40;;;0.40;;
11283;SDS011;5698;47.332;11.180;2023-12-20T14:42:06;1.17;;;0.30;;
11283;SDS011;5698;47.332;11.180;2023-12-20T14:44:36;0.50;;;0.50;;
11283;SDS011;5698;47.332;11.180;2023-12-20T14:47:03;0.73;;;0.70;;
11283;SDS011;5698;47.332;11.180;2023-12-20T14:49:30;0.50;;;0.50;;
11283;SDS011;5698;47.332;11.180;2023-12-20T14:51:57;0.40;;;0.40;;
11283;SDS011;5698;47.332;11.180;2023-12-20T14:54:24;0.40;;;0.40;;